sensor_id;sensor_type;location;lat;lon;timestamp;P1;durP1;ratioP1;P2;durP2;ratioP2
74269;SDS011;62754;48.252;11.654;2023-01-28T00:00:05;17.48;;;9.07;;
74269;SDS011;62754;48.252;11.654;2023-01-28T00:02:32;19.80;;;9.93;;
74269;SDS011;62754;48.252;11.654;2023-01-28T00:04:59;19.67;;;10.07;;
74269;SDS011;62754;48.252;11.654;2023-01-28T00:07:25;16.83;;;8.40;;
74269;SDS011;62754;48.252;11.654;2023-01-28T00:09:50;21.65;;;11.05;;
74269;SDS011;62754;48.252;11.654;2023-01-28T00:12:16;20.02;;;10.20;;
74269;SDS011;62754;48.252;11.654;2023-01-28T00:14:43;20.23;;;9.80;;
74269;SDS011;62754;48.252;11.654;2023-01-28T00:17:08;23.42;;;10.27;;
74269;SDS011;62754;48.252;11.654;2023-01-28T00:19:34;21.88;;;10.32;;
74269;SDS011;62754;48.252;11.654;2023-01-28T00:22:00;18.20;;;9.18;;
74269;SDS011;62754;48.252;11.654;2023-01-28T00:24:26;20.73;;;10.32;;
74269;SDS011;62754;48.252;11.654;2023-01-28T00:26:51;20.98;;;10.75;;
74269;SDS011;62754;48.252;11.654;2023-01-28T00:29:17;25.27;;;11.88;;
74269;SDS011;62754;48.252;11.654;2023-01-28T00:31:43;20.85;;;9.57;;
74269;SDS011;62754;48.252;11.654;2023-01-28T00:34:08;19.60;;;9.68;;
74269;SDS011;62754;48.252;11.654;2023-01-28T00:36:34;20.15;;;9.68;;
74269;SDS011;62754;48.252;11.654;2023-01-28T00:39:00;21.67;;;10.35;;
74269;SDS011;62754;48.252;11.654;2023-01-28T00:41:27;20.85;;;9.88;;
74269;SDS011;62754;48.252;11.654;2023-01-28T00:43:54;20.85;;;10.32;;
74269;SDS011;62754;48.252;11.654;2023-01-28T00:46:20;24.63;;;10.52;;
74269;SDS011;62754;48.252;11.654;2023-01-28T00:48:47;22.23;;;10.10;;
74269;SDS011;62754;48.252;11.654;2023-01-28T00:51:13;20.38;;;10.48;;
74269;SDS011;62754;48.252;11.654;2023-01-28T00:53:41;19.25;;;9.82;;
74269;SDS011;62754;48.252;11.654;2023-01-28T00:56:08;19.90;;;10.40;;
74269;SDS011;62754;48.252;11.654;2023-01-28T00:58:37;22.45;;;11.32;;
74269;SDS011;62754;48.252;11.654;2023-01-28T01:01:09;20.48;;;10.35;;
74269;SDS011;62754;48.252;11.654;2023-01-28T01:03:36;23.23;;;10.00;;
74269;SDS011;62754;48.252;11.654;2023-01-28T01:06:02;22.98;;;10.35;;
74269;SDS011;62754;48.252;11.654;2023-01-28T01:08:28;19.95;;;9.73;;
74269;SDS011;62754;48.252;11.654;2023-01-28T01:10:57;23.35;;;10.98;;
74269;SDS011;62754;48.252;11.654;2023-01-28T01:13:23;21.42;;;9.90;;
74269;SDS011;62754;48.252;11.654;2023-01-28T01:15:49;19.25;;;9.23;;
74269;SDS011;62754;48.252;11.654;2023-01-28T01:18:15;20.17;;;10.13;;
74269;SDS011;62754;48.252;11.654;2023-01-28T01:20:40;21.77;;;10.43;;
74269;SDS011;62754;48.252;11.654;2023-01-28T01:23:06;21.80;;;10.52;;
74269;SDS011;62754;48.252;11.654;2023-01-28T01:25:32;20.85;;;10.07;;
74269;SDS011;62754;48.252;11.654;2023-01-28T01:27:58;22.92;;;10.43;;
74269;SDS011;62754;48.252;11.654;2023-01-28T01:30:23;22.65;;;9.85;;
74269;SDS011;62754;48.252;11.654;2023-01-28T01:32:49;21.38;;;10.02;;
74269;SDS011;62754;48.252;11.654;2023-01-28T01:35:15;21.52;;;9.95;;
74269;SDS011;62754;48.252;11.654;2023-01-28T01:37:42;23.48;;;11.13;;
74269;SDS011;62754;48.252;11.654;2023-01-28T01:40:09;23.58;;;10.90;;
74269;SDS011;62754;48.252;11.654;2023-01-28T01:42:35;20.52;;;10.10;;
74269;SDS011;62754;48.252;11.654;2023-01-28T01:50:03;20.63;;;10.32;;
74269;SDS011;62754;48.252;11.654;2023-01-28T01:52:34;20.60;;;9.80;;
74269;SDS011;62754;48.252;11.654;2023-01-28T01:55:02;19.17;;;9.38;;
74269;SDS011;62754;48.252;11.654;2023-01-28T01:57:32;20.45;;;9.73;;
74269;SDS011;62754;48.252;11.654;2023-01-28T02:00:00;21.92;;;10.38;;
74269;SDS011;62754;48.252;11.654;2023-01-28T02:02:28;22.05;;;10.30;;
74269;SDS011;62754;48.252;11.654;2023-01-28T02:04:53;19.08;;;8.80;;
74269;SDS011;62754;48.252;11.654;2023-01-28T02:07:19;21.27;;;9.63;;
74269;SDS011;62754;48.252;11.654;2023-01-28T02:09:45;21.50;;;9.27;;
74269;SDS011;62754;48.252;11.654;2023-01-28T02:12:11;19.00;;;9.43;;
74269;SDS011;62754;48.252;11.654;2023-01-28T02:17:45;19.77;;;9.82;;
74269;SDS011;62754;48.252;11.654;2023-01-28T02:20:12;21.27;;;9.77;;
74269;SDS011;62754;48.252;11.654;2023-01-28T02:31:26;23.98;;;10.07;;
74269;SDS011;62754;48.252;11.654;2023-01-28T02:36:41;20.63;;;9.55;;
74269;SDS011;62754;48.252;11.654;2023-01-28T02:39:17;23.65;;;10.18;;
74269;SDS011;62754;48.252;11.654;2023-01-28T02:41:49;18.52;;;8.98;;
74269;SDS011;62754;48.252;11.654;2023-01-28T02:44:21;21.52;;;9.93;;
74269;SDS011;62754;48.252;11.654;2023-01-28T02:46:46;20.10;;;10.02;;
74269;SDS011;62754;48.252;11.654;2023-01-28T02:55:02;20.95;;;8.98;;
74269;SDS011;62754;48.252;11.654;2023-01-28T03:00:17;17.88;;;8.98;;
74269;SDS011;62754;48.252;11.654;2023-01-28T03:05:29;17.33;;;8.43;;
74269;SDS011;62754;48.252;11.654;2023-01-28T03:08:08;19.77;;;9.35;;
74269;SDS011;62754;48.252;11.654;2023-01-28T03:10:36;18.70;;;9.07;;
74269;SDS011;62754;48.252;11.654;2023-01-28T03:13:02;20.10;;;9.15;;
74269;SDS011;62754;48.252;11.654;2023-01-28T03:15:28;21.42;;;10.27;;
74269;SDS011;62754;48.252;11.654;2023-01-28T03:20:38;18.17;;;8.90;;
74269;SDS011;62754;48.252;11.654;2023-01-28T03:23:12;18.27;;;8.98;;
74269;SDS011;62754;48.252;11.654;2023-01-28T03:25:42;19.48;;;8.95;;
74269;SDS011;62754;48.252;11.654;2023-01-28T03:28:15;20.27;;;9.93;;
74269;SDS011;62754;48.252;11.654;2023-01-28T03:30:47;18.25;;;8.98;;
74269;SDS011;62754;48.252;11.654;2023-01-28T03:33:18;19.73;;;10.00;;
74269;SDS011;62754;48.252;11.654;2023-01-28T03:35:45;17.20;;;9.10;;
74269;SDS011;62754;48.252;11.654;2023-01-28T03:38:13;20.02;;;8.77;;
74269;SDS011;62754;48.252;11.654;2023-01-28T03:45:38;18.05;;;8.48;;
74269;SDS011;62754;48.252;11.654;2023-01-28T03:48:04;17.85;;;8.68;;
74269;SDS011;62754;48.252;11.654;2023-01-28T03:50:30;18.30;;;9.00;;
74269;SDS011;62754;48.252;11.654;2023-01-28T03:52:56;18.92;;;9.35;;
74269;SDS011;62754;48.252;11.654;2023-01-28T03:55:22;19.95;;;9.13;;
74269;SDS011;62754;48.252;11.654;2023-01-28T03:57:47;21.25;;;9.88;;
74269;SDS011;62754;48.252;11.654;2023-01-28T04:00:13;19.23;;;8.98;;
74269;SDS011;62754;48.252;11.654;2023-01-28T04:02:40;19.27;;;8.68;;
74269;SDS011;62754;48.252;11.654;2023-01-28T04:05:06;21.52;;;9.73;;
74269;SDS011;62754;48.252;11.654;2023-01-28T04:07:33;18.80;;;9.27;;
74269;SDS011;62754;48.252;11.654;2023-01-28T04:09:59;17.73;;;9.05;;
74269;SDS011;62754;48.252;11.654;2023-01-28T04:12:24;19.90;;;8.70;;
74269;SDS011;62754;48.252;11.654;2023-01-28T04:14:50;17.25;;;8.55;;
74269;SDS011;62754;48.252;11.654;2023-01-28T04:17:16;19.50;;;8.63;;
74269;SDS011;62754;48.252;11.654;2023-01-28T04:19:42;21.15;;;9.50;;
74269;SDS011;62754;48.252;11.654;2023-01-28T04:22:09;17.35;;;9.00;;
74269;SDS011;62754;48.252;11.654;2023-01-28T04:24:35;18.35;;;9.30;;
74269;SDS011;62754;48.252;11.654;2023-01-28T04:27:01;18.98;;;9.25;;
74269;SDS011;62754;48.252;11.654;2023-01-28T04:29:27;16.23;;;7.95;;
74269;SDS011;62754;48.252;11.654;2023-01-28T04:31:52;17.67;;;8.52;;
74269;SDS011;62754;48.252;11.654;2023-01-28T04:34:18;19.27;;;9.57;;
74269;SDS011;62754;48.252;11.654;2023-01-28T04:36:44;18.10;;;9.23;;
74269;SDS011;62754;48.252;11.654;2023-01-28T04:39:10;18.70;;;9.18;;
74269;SDS011;62754;48.252;11.654;2023-01-28T04:41:36;20.48;;;9.02;;
74269;SDS011;62754;48.252;11.654;2023-01-28T04:44:01;17.80;;;8.50;;
74269;SDS011;62754;48.252;11.654;2023-01-28T04:46:27;19.73;;;8.80;;
74269;SDS011;62754;48.252;11.654;2023-01-28T04:48:53;19.33;;;9.98;;
74269;SDS011;62754;48.252;11.654;2023-01-28T04:51:19;17.52;;;9.15;;
74269;SDS011;62754;48.252;11.654;2023-01-28T04:53:44;18.58;;;8.55;;
74269;SDS011;62754;48.252;11.654;2023-01-28T04:56:10;17.83;;;8.50;;
74269;SDS011;62754;48.252;11.654;2023-01-28T04:58:36;19.80;;;9.32;;
74269;SDS011;62754;48.252;11.654;2023-01-28T05:01:02;18.25;;;8.93;;
74269;SDS011;62754;48.252;11.654;2023-01-28T05:03:27;18.40;;;8.25;;
74269;SDS011;62754;48.252;11.654;2023-01-28T05:05:53;17.95;;;8.60;;
74269;SDS011;62754;48.252;11.654;2023-01-28T05:08:19;19.30;;;9.35;;
74269;SDS011;62754;48.252;11.654;2023-01-28T05:10:45;15.98;;;8.68;;
74269;SDS011;62754;48.252;11.654;2023-01-28T05:13:10;19.10;;;9.05;;
74269;SDS011;62754;48.252;11.654;2023-01-28T05:15:36;17.75;;;8.95;;
74269;SDS011;62754;48.252;11.654;2023-01-28T05:18:02;17.30;;;8.50;;
74269;SDS011;62754;48.252;11.654;2023-01-28T05:20:28;19.25;;;9.80;;
74269;SDS011;62754;48.252;11.654;2023-01-28T05:22:53;16.98;;;8.77;;
74269;SDS011;62754;48.252;11.654;2023-01-28T05:25:19;18.10;;;8.73;;
74269;SDS011;62754;48.252;11.654;2023-01-28T05:27:48;18.67;;;8.95;;
74269;SDS011;62754;48.252;11.654;2023-01-28T05:30:15;18.90;;;9.10;;
74269;SDS011;62754;48.252;11.654;2023-01-28T05:32:41;19.70;;;9.48;;
74269;SDS011;62754;48.252;11.654;2023-01-28T05:35:07;18.83;;;8.45;;
74269;SDS011;62754;48.252;11.654;2023-01-28T05:37:33;19.30;;;9.43;;
74269;SDS011;62754;48.252;11.654;2023-01-28T05:39:59;16.10;;;8.05;;
74269;SDS011;62754;48.252;11.654;2023-01-28T05:42:24;16.58;;;8.63;;
74269;SDS011;62754;48.252;11.654;2023-01-28T05:44:50;17.65;;;9.27;;
74269;SDS011;62754;48.252;11.654;2023-01-28T05:47:16;17.08;;;8.00;;
74269;SDS011;62754;48.252;11.654;2023-01-28T05:49:42;17.58;;;9.05;;
74269;SDS011;62754;48.252;11.654;2023-01-28T05:52:08;18.08;;;8.88;;
74269;SDS011;62754;48.252;11.654;2023-01-28T05:54:33;15.57;;;7.50;;
74269;SDS011;62754;48.252;11.654;2023-01-28T05:56:59;19.73;;;9.20;;
74269;SDS011;62754;48.252;11.654;2023-01-28T05:59:25;19.02;;;8.55;;
74269;SDS011;62754;48.252;11.654;2023-01-28T06:01:50;17.88;;;8.32;;
74269;SDS011;62754;48.252;11.654;2023-01-28T06:04:16;16.27;;;8.18;;
74269;SDS011;62754;48.252;11.654;2023-01-28T06:06:42;18.35;;;8.82;;
74269;SDS011;62754;48.252;11.654;2023-01-28T06:09:08;17.30;;;9.07;;
74269;SDS011;62754;48.252;11.654;2023-01-28T06:11:33;16.17;;;8.32;;
74269;SDS011;62754;48.252;11.654;2023-01-28T06:13:59;17.17;;;8.35;;
74269;SDS011;62754;48.252;11.654;2023-01-28T06:16:25;15.30;;;8.30;;
74269;SDS011;62754;48.252;11.654;2023-01-28T06:18:51;20.17;;;8.95;;
74269;SDS011;62754;48.252;11.654;2023-01-28T06:21:16;17.00;;;8.10;;
74269;SDS011;62754;48.252;11.654;2023-01-28T06:23:42;18.00;;;8.23;;
74269;SDS011;62754;48.252;11.654;2023-01-28T06:26:08;19.05;;;8.70;;
74269;SDS011;62754;48.252;11.654;2023-01-28T06:28:33;17.08;;;7.90;;
74269;SDS011;62754;48.252;11.654;2023-01-28T06:30:59;17.92;;;9.02;;
74269;SDS011;62754;48.252;11.654;2023-01-28T06:33:25;15.05;;;7.70;;
74269;SDS011;62754;48.252;11.654;2023-01-28T06:35:51;15.75;;;7.88;;
74269;SDS011;62754;48.252;11.654;2023-01-28T06:38:16;17.20;;;8.13;;
74269;SDS011;62754;48.252;11.654;2023-01-28T06:40:42;15.30;;;8.02;;
74269;SDS011;62754;48.252;11.654;2023-01-28T06:43:08;15.00;;;7.85;;
74269;SDS011;62754;48.252;11.654;2023-01-28T06:45:34;18.02;;;8.40;;
74269;SDS011;62754;48.252;11.654;2023-01-28T06:47:59;17.48;;;8.55;;
74269;SDS011;62754;48.252;11.654;2023-01-28T06:50:25;17.00;;;8.77;;
74269;SDS011;62754;48.252;11.654;2023-01-28T06:52:51;16.77;;;7.95;;
74269;SDS011;62754;48.252;11.654;2023-01-28T06:55:17;18.20;;;8.38;;
74269;SDS011;62754;48.252;11.654;2023-01-28T06:57:42;16.88;;;8.45;;
74269;SDS011;62754;48.252;11.654;2023-01-28T07:00:09;17.90;;;8.65;;
74269;SDS011;62754;48.252;11.654;2023-01-28T07:02:36;16.10;;;8.30;;
74269;SDS011;62754;48.252;11.654;2023-01-28T07:05:02;15.45;;;8.23;;
74269;SDS011;62754;48.252;11.654;2023-01-28T07:07:29;15.23;;;7.40;;
74269;SDS011;62754;48.252;11.654;2023-01-28T07:09:54;13.77;;;7.57;;
74269;SDS011;62754;48.252;11.654;2023-01-28T07:12:20;28.90;;;18.02;;
74269;SDS011;62754;48.252;11.654;2023-01-28T07:14:46;40.60;;;23.27;;
74269;SDS011;62754;48.252;11.654;2023-01-28T07:17:11;45.72;;;23.77;;
74269;SDS011;62754;48.252;11.654;2023-01-28T07:19:37;83.43;;;44.85;;
74269;SDS011;62754;48.252;11.654;2023-01-28T07:22:03;28.25;;;15.43;;
74269;SDS011;62754;48.252;11.654;2023-01-28T07:24:29;24.00;;;13.30;;
74269;SDS011;62754;48.252;11.654;2023-01-28T07:26:55;33.83;;;16.85;;
74269;SDS011;62754;48.252;11.654;2023-01-28T07:29:21;38.75;;;19.30;;
74269;SDS011;62754;48.252;11.654;2023-01-28T07:31:46;28.88;;;14.75;;
74269;SDS011;62754;48.252;11.654;2023-01-28T07:34:12;39.90;;;20.40;;
74269;SDS011;62754;48.252;11.654;2023-01-28T07:36:38;28.35;;;14.63;;
74269;SDS011;62754;48.252;11.654;2023-01-28T07:39:04;26.63;;;13.43;;
74269;SDS011;62754;48.252;11.654;2023-01-28T07:41:30;16.42;;;8.93;;
74269;SDS011;62754;48.252;11.654;2023-01-28T07:43:56;17.83;;;8.05;;
74269;SDS011;62754;48.252;11.654;2023-01-28T07:46:21;16.13;;;7.50;;
74269;SDS011;62754;48.252;11.654;2023-01-28T07:48:47;16.55;;;8.27;;
74269;SDS011;62754;48.252;11.654;2023-01-28T07:51:13;15.25;;;8.02;;
74269;SDS011;62754;48.252;11.654;2023-01-28T07:53:39;14.93;;;8.07;;
74269;SDS011;62754;48.252;11.654;2023-01-28T07:56:05;17.52;;;9.02;;
74269;SDS011;62754;48.252;11.654;2023-01-28T07:58:31;16.83;;;8.48;;
74269;SDS011;62754;48.252;11.654;2023-01-28T08:00:57;18.70;;;9.23;;
74269;SDS011;62754;48.252;11.654;2023-01-28T08:03:23;19.33;;;8.48;;
74269;SDS011;62754;48.252;11.654;2023-01-28T08:05:50;16.45;;;7.88;;
74269;SDS011;62754;48.252;11.654;2023-01-28T08:08:17;18.58;;;8.55;;
74269;SDS011;62754;48.252;11.654;2023-01-28T08:10:44;17.85;;;8.07;;
74269;SDS011;62754;48.252;11.654;2023-01-28T08:13:11;17.58;;;8.57;;
74269;SDS011;62754;48.252;11.654;2023-01-28T08:15:38;16.20;;;8.32;;
74269;SDS011;62754;48.252;11.654;2023-01-28T08:18:04;19.40;;;8.75;;
74269;SDS011;62754;48.252;11.654;2023-01-28T08:23:30;13.70;;;7.38;;
74269;SDS011;62754;48.252;11.654;2023-01-28T08:25:49;16.67;;;8.65;;
74269;SDS011;62754;48.252;11.654;2023-01-28T08:28:15;15.77;;;7.50;;
74269;SDS011;62754;48.252;11.654;2023-01-28T08:30:41;16.33;;;7.40;;
74269;SDS011;62754;48.252;11.654;2023-01-28T08:33:08;13.95;;;7.13;;
74269;SDS011;62754;48.252;11.654;2023-01-28T08:35:35;14.00;;;7.22;;
74269;SDS011;62754;48.252;11.654;2023-01-28T08:38:02;18.40;;;8.43;;
74269;SDS011;62754;48.252;11.654;2023-01-28T08:42:54;13.77;;;7.28;;
74269;SDS011;62754;48.252;11.654;2023-01-28T08:45:21;13.38;;;6.72;;
74269;SDS011;62754;48.252;11.654;2023-01-28T08:47:48;16.08;;;7.75;;
74269;SDS011;62754;48.252;11.654;2023-01-28T08:50:23;14.88;;;6.95;;
74269;SDS011;62754;48.252;11.654;2023-01-28T08:52:56;14.15;;;8.13;;
74269;SDS011;62754;48.252;11.654;2023-01-28T08:55:30;16.08;;;8.05;;
74269;SDS011;62754;48.252;11.654;2023-01-28T08:57:56;12.77;;;7.45;;
74269;SDS011;62754;48.252;11.654;2023-01-28T09:00:22;15.63;;;7.97;;
74269;SDS011;62754;48.252;11.654;2023-01-28T09:02:51;16.90;;;8.27;;
74269;SDS011;62754;48.252;11.654;2023-01-28T09:05:17;15.77;;;8.07;;
74269;SDS011;62754;48.252;11.654;2023-01-28T09:07:44;15.70;;;8.68;;
74269;SDS011;62754;48.252;11.654;2023-01-28T09:10:10;15.48;;;8.30;;
74269;SDS011;62754;48.252;11.654;2023-01-28T09:12:35;14.60;;;7.57;;
74269;SDS011;62754;48.252;11.654;2023-01-28T09:15:01;14.18;;;7.13;;
74269;SDS011;62754;48.252;11.654;2023-01-28T09:17:28;13.35;;;7.40;;
74269;SDS011;62754;48.252;11.654;2023-01-28T09:19:53;13.88;;;7.63;;
74269;SDS011;62754;48.252;11.654;2023-01-28T09:22:19;16.42;;;8.15;;
74269;SDS011;62754;48.252;11.654;2023-01-28T09:24:45;16.50;;;8.75;;
74269;SDS011;62754;48.252;11.654;2023-01-28T09:27:11;14.82;;;7.75;;
74269;SDS011;62754;48.252;11.654;2023-01-28T09:29:37;14.40;;;7.53;;
74269;SDS011;62754;48.252;11.654;2023-01-28T09:32:03;14.48;;;7.68;;
74269;SDS011;62754;48.252;11.654;2023-01-28T09:34:30;16.27;;;8.43;;
74269;SDS011;62754;48.252;11.654;2023-01-28T09:36:55;17.45;;;9.38;;
74269;SDS011;62754;48.252;11.654;2023-01-28T09:39:21;15.18;;;7.70;;
74269;SDS011;62754;48.252;11.654;2023-01-28T09:42:03;14.35;;;7.38;;
74269;SDS011;62754;48.252;11.654;2023-01-28T09:47:31;17.13;;;10.05;;
74269;SDS011;62754;48.252;11.654;2023-01-28T09:50:04;14.65;;;8.70;;
74269;SDS011;62754;48.252;11.654;2023-01-28T09:52:33;13.27;;;7.40;;
74269;SDS011;62754;48.252;11.654;2023-01-28T09:55:04;14.80;;;7.55;;
74269;SDS011;62754;48.252;11.654;2023-01-28T09:57:39;13.68;;;7.05;;
74269;SDS011;62754;48.252;11.654;2023-01-28T10:00:13;13.30;;;7.20;;
74269;SDS011;62754;48.252;11.654;2023-01-28T10:11:53;14.32;;;6.97;;
74269;SDS011;62754;48.252;11.654;2023-01-28T10:17:16;13.85;;;7.47;;
74269;SDS011;62754;48.252;11.654;2023-01-28T10:19:53;14.40;;;7.72;;
74269;SDS011;62754;48.252;11.654;2023-01-28T10:22:25;12.88;;;7.57;;
74269;SDS011;62754;48.252;11.654;2023-01-28T10:24:57;12.00;;;6.65;;
74269;SDS011;62754;48.252;11.654;2023-01-28T10:27:30;13.50;;;7.55;;
74269;SDS011;62754;48.252;11.654;2023-01-28T10:29:56;12.82;;;6.80;;
74269;SDS011;62754;48.252;11.654;2023-01-28T10:35:02;13.18;;;6.95;;
74269;SDS011;62754;48.252;11.654;2023-01-28T10:37:35;13.77;;;6.50;;
74269;SDS011;62754;48.252;11.654;2023-01-28T10:42:30;11.30;;;5.82;;
74269;SDS011;62754;48.252;11.654;2023-01-28T10:45:41;15.02;;;7.22;;
74269;SDS011;62754;48.252;11.654;2023-01-28T10:48:28;13.57;;;6.78;;
74269;SDS011;62754;48.252;11.654;2023-01-28T10:50:52;12.95;;;7.03;;
74269;SDS011;62754;48.252;11.654;2023-01-28T10:53:19;14.80;;;7.68;;
74269;SDS011;62754;48.252;11.654;2023-01-28T10:58:20;14.07;;;7.55;;
74269;SDS011;62754;48.252;11.654;2023-01-28T11:01:04;13.30;;;7.78;;
74269;SDS011;62754;48.252;11.654;2023-01-28T11:03:31;13.10;;;6.75;;
74269;SDS011;62754;48.252;11.654;2023-01-28T11:05:57;13.75;;;8.25;;
74269;SDS011;62754;48.252;11.654;2023-01-28T11:08:24;12.20;;;7.00;;
74269;SDS011;62754;48.252;11.654;2023-01-28T11:10:52;14.10;;;8.15;;
74269;SDS011;62754;48.252;11.654;2023-01-28T11:15:45;14.88;;;8.77;;
74269;SDS011;62754;48.252;11.654;2023-01-28T11:18:17;14.85;;;7.95;;
74269;SDS011;62754;48.252;11.654;2023-01-28T11:20:56;15.30;;;8.25;;
74269;SDS011;62754;48.252;11.654;2023-01-28T11:23:27;12.48;;;6.95;;
74269;SDS011;62754;48.252;11.654;2023-01-28T11:28:24;13.25;;;7.63;;
74269;SDS011;62754;48.252;11.654;2023-01-28T11:30:51;13.52;;;7.95;;
74269;SDS011;62754;48.252;11.654;2023-01-28T11:33:21;13.75;;;7.85;;
74269;SDS011;62754;48.252;11.654;2023-01-28T11:38:28;14.70;;;8.40;;
74269;SDS011;62754;48.252;11.654;2023-01-28T11:40:55;12.93;;;7.32;;
74269;SDS011;62754;48.252;11.654;2023-01-28T11:43:23;15.05;;;7.93;;
74269;SDS011;62754;48.252;11.654;2023-01-28T11:51:03;14.93;;;7.20;;
74269;SDS011;62754;48.252;11.654;2023-01-28T11:53:40;14.93;;;7.97;;
74269;SDS011;62754;48.252;11.654;2023-01-28T12:05:10;13.30;;;6.93;;
74269;SDS011;62754;48.252;11.654;2023-01-28T12:07:48;12.80;;;6.45;;
74269;SDS011;62754;48.252;11.654;2023-01-28T12:10:31;15.18;;;7.70;;
74269;SDS011;62754;48.252;11.654;2023-01-28T12:16:17;14.98;;;7.53;;
74269;SDS011;62754;48.252;11.654;2023-01-28T12:24:27;15.68;;;7.45;;
74269;SDS011;62754;48.252;11.654;2023-01-28T12:29:47;14.88;;;7.03;;
74269;SDS011;62754;48.252;11.654;2023-01-28T12:48:58;15.15;;;7.43;;
74269;SDS011;62754;48.252;11.654;2023-01-28T12:51:33;14.60;;;7.43;;
74269;SDS011;62754;48.252;11.654;2023-01-28T12:54:10;14.23;;;7.07;;
74269;SDS011;62754;48.252;11.654;2023-01-28T12:57:01;15.07;;;7.93;;
74269;SDS011;62754;48.252;11.654;2023-01-28T12:59:28;13.48;;;7.10;;
74269;SDS011;62754;48.252;11.654;2023-01-28T13:10:10;14.88;;;8.15;;
74269;SDS011;62754;48.252;11.654;2023-01-28T13:12:41;12.48;;;6.53;;
74269;SDS011;62754;48.252;11.654;2023-01-28T13:15:15;12.68;;;7.05;;
74269;SDS011;62754;48.252;11.654;2023-01-28T13:17:55;15.10;;;7.07;;
74269;SDS011;62754;48.252;11.654;2023-01-28T13:20:34;15.50;;;7.22;;
74269;SDS011;62754;48.252;11.654;2023-01-28T13:23:03;11.60;;;6.50;;
74269;SDS011;62754;48.252;11.654;2023-01-28T13:25:32;11.05;;;6.03;;
74269;SDS011;62754;48.252;11.654;2023-01-28T13:28:23;12.98;;;6.88;;
74269;SDS011;62754;48.252;11.654;2023-01-28T13:30:51;14.35;;;7.43;;
74269;SDS011;62754;48.252;11.654;2023-01-28T13:33:29;12.27;;;6.03;;
74269;SDS011;62754;48.252;11.654;2023-01-28T13:38:37;11.95;;;6.15;;
74269;SDS011;62754;48.252;11.654;2023-01-28T13:41:03;13.90;;;6.30;;
74269;SDS011;62754;48.252;11.654;2023-01-28T13:46:13;11.60;;;6.00;;
74269;SDS011;62754;48.252;11.654;2023-01-28T13:48:52;13.00;;;6.22;;
74269;SDS011;62754;48.252;11.654;2023-01-28T13:51:27;11.77;;;6.10;;
74269;SDS011;62754;48.252;11.654;2023-01-28T13:56:33;11.93;;;6.28;;
74269;SDS011;62754;48.252;11.654;2023-01-28T14:05:08;11.73;;;5.72;;
74269;SDS011;62754;48.252;11.654;2023-01-28T14:07:51;12.55;;;6.88;;
74269;SDS011;62754;48.252;11.654;2023-01-28T14:13:32;9.75;;;5.45;;
74269;SDS011;62754;48.252;11.654;2023-01-28T14:18:54;9.82;;;5.15;;
74269;SDS011;62754;48.252;11.654;2023-01-28T14:21:24;10.55;;;5.70;;
74269;SDS011;62754;48.252;11.654;2023-01-28T14:23:55;11.88;;;5.07;;
74269;SDS011;62754;48.252;11.654;2023-01-28T14:26:25;10.88;;;5.40;;
74269;SDS011;62754;48.252;11.654;2023-01-28T14:31:35;9.35;;;4.47;;
74269;SDS011;62754;48.252;11.654;2023-01-28T14:34:05;8.55;;;4.22;;
74269;SDS011;62754;48.252;11.654;2023-01-28T14:36:38;8.98;;;4.82;;
74269;SDS011;62754;48.252;11.654;2023-01-28T14:39:10;12.15;;;5.05;;
74269;SDS011;62754;48.252;11.654;2023-01-28T14:42:00;11.45;;;6.03;;
74269;SDS011;62754;48.252;11.654;2023-01-28T14:55:41;12.60;;;5.53;;
74269;SDS011;62754;48.252;11.654;2023-01-28T14:58:24;14.07;;;6.18;;
74269;SDS011;62754;48.252;11.654;2023-01-28T15:00:56;11.55;;;5.75;;
74269;SDS011;62754;48.252;11.654;2023-01-28T15:03:23;13.25;;;6.65;;
74269;SDS011;62754;48.252;11.654;2023-01-28T15:06:12;12.10;;;6.43;;
74269;SDS011;62754;48.252;11.654;2023-01-28T15:08:40;12.38;;;5.95;;
74269;SDS011;62754;48.252;11.654;2023-01-28T15:11:12;13.23;;;7.25;;
74269;SDS011;62754;48.252;11.654;2023-01-28T15:13:50;16.85;;;6.95;;
74269;SDS011;62754;48.252;11.654;2023-01-28T15:16:23;14.80;;;7.18;;
74269;SDS011;62754;48.252;11.654;2023-01-28T15:18:51;14.57;;;7.70;;
74269;SDS011;62754;48.252;11.654;2023-01-28T15:21:20;15.35;;;7.38;;
74269;SDS011;62754;48.252;11.654;2023-01-28T15:23:52;16.48;;;7.38;;
74269;SDS011;62754;48.252;11.654;2023-01-28T15:26:22;16.13;;;7.53;;
74269;SDS011;62754;48.252;11.654;2023-01-28T15:28:52;12.20;;;5.93;;
74269;SDS011;62754;48.252;11.654;2023-01-28T15:31:20;12.85;;;6.22;;
74269;SDS011;62754;48.252;11.654;2023-01-28T15:33:57;10.75;;;5.45;;
74269;SDS011;62754;48.252;11.654;2023-01-28T15:36:28;11.65;;;6.22;;
74269;SDS011;62754;48.252;11.654;2023-01-28T15:38:55;12.00;;;6.07;;
74269;SDS011;62754;48.252;11.654;2023-01-28T15:41:23;13.32;;;6.93;;
74269;SDS011;62754;48.252;11.654;2023-01-28T15:43:53;15.40;;;7.47;;
74269;SDS011;62754;48.252;11.654;2023-01-28T15:46:19;14.40;;;7.03;;
74269;SDS011;62754;48.252;11.654;2023-01-28T15:48:45;14.02;;;7.18;;
74269;SDS011;62754;48.252;11.654;2023-01-28T15:51:19;13.88;;;7.32;;
74269;SDS011;62754;48.252;11.654;2023-01-28T15:53:52;16.63;;;7.88;;
74269;SDS011;62754;48.252;11.654;2023-01-28T15:56:23;17.08;;;8.57;;
74269;SDS011;62754;48.252;11.654;2023-01-28T15:58:51;16.75;;;7.90;;
74269;SDS011;62754;48.252;11.654;2023-01-28T16:01:18;18.55;;;9.07;;
74269;SDS011;62754;48.252;11.654;2023-01-28T16:06:13;18.35;;;8.45;;
74269;SDS011;62754;48.252;11.654;2023-01-28T16:08:49;16.55;;;8.55;;
74269;SDS011;62754;48.252;11.654;2023-01-28T16:11:22;19.65;;;8.68;;
74269;SDS011;62754;48.252;11.654;2023-01-28T16:13:50;19.63;;;9.32;;
74269;SDS011;62754;48.252;11.654;2023-01-28T16:16:23;16.02;;;8.70;;
74269;SDS011;62754;48.252;11.654;2023-01-28T16:18:51;16.80;;;7.90;;
74269;SDS011;62754;48.252;11.654;2023-01-28T16:21:19;18.40;;;9.07;;
74269;SDS011;62754;48.252;11.654;2023-01-28T16:23:52;20.60;;;9.18;;
74269;SDS011;62754;48.252;11.654;2023-01-28T16:26:24;19.17;;;9.45;;
74269;SDS011;62754;48.252;11.654;2023-01-28T16:28:52;20.35;;;10.02;;
74269;SDS011;62754;48.252;11.654;2023-01-28T16:31:18;19.17;;;9.38;;
74269;SDS011;62754;48.252;11.654;2023-01-28T16:33:44;19.25;;;9.25;;
74269;SDS011;62754;48.252;11.654;2023-01-28T16:36:10;21.65;;;9.52;;
74269;SDS011;62754;48.252;11.654;2023-01-28T16:38:38;19.45;;;9.80;;
74269;SDS011;62754;48.252;11.654;2023-01-28T16:41:04;19.33;;;9.48;;
74269;SDS011;62754;48.252;11.654;2023-01-28T16:43:29;25.10;;;12.45;;
74269;SDS011;62754;48.252;11.654;2023-01-28T16:45:55;19.58;;;9.95;;
74269;SDS011;62754;48.252;11.654;2023-01-28T16:48:21;23.75;;;11.23;;
74269;SDS011;62754;48.252;11.654;2023-01-28T16:50:47;19.90;;;9.38;;
74269;SDS011;62754;48.252;11.654;2023-01-28T16:53:20;21.27;;;9.80;;
74269;SDS011;62754;48.252;11.654;2023-01-28T16:55:52;16.60;;;8.15;;
74269;SDS011;62754;48.252;11.654;2023-01-28T16:58:21;18.63;;;8.35;;
74269;SDS011;62754;48.252;11.654;2023-01-28T17:00:49;18.50;;;8.55;;
74269;SDS011;62754;48.252;11.654;2023-01-28T17:03:15;18.17;;;8.43;;
74269;SDS011;62754;48.252;11.654;2023-01-28T17:05:41;18.42;;;8.15;;
74269;SDS011;62754;48.252;11.654;2023-01-28T17:08:07;17.33;;;8.45;;